sensor_id;sensor_type;location;lat;lon;timestamp;temperature;humidity
6672;DHT22;3372;48.690;12.362;2022-10-22T00:01:12;15.40;91.40
6672;DHT22;3372;48.690;12.362;2022-10-22T00:03:38;15.40;91.30
6672;DHT22;3372;48.690;12.362;2022-10-22T00:06:04;15.40;91.10
6672;DHT22;3372;48.690;12.362;2022-10-22T00:08:30;15.40;91.10
6672;DHT22;3372;48.690;12.362;2022-10-22T00:10:55;15.40;91.00
6672;DHT22;3372;48.690;12.362;2022-10-22T00:13:21;15.30;91.10
6672;DHT22;3372;48.690;12.362;2022-10-22T00:15:47;15.20;91.80
6672;DHT22;3372;48.690;12.362;2022-10-22T00:18:13;15.30;91.80
6672;DHT22;3372;48.690;12.362;2022-10-22T00:20:38;15.30;91.40
6672;DHT22;3372;48.690;12.362;2022-10-22T00:23:04;15.40;91.60
6672;DHT22;3372;48.690;12.362;2022-10-22T00:25:30;15.40;91.30
6672;DHT22;3372;48.690;12.362;2022-10-22T00:27:55;15.30;91.40
6672;DHT22;3372;48.690;12.362;2022-10-22T00:30:21;15.40;91.10
6672;DHT22;3372;48.690;12.362;2022-10-22T00:32:46;15.30;91.30
6672;DHT22;3372;48.690;12.362;2022-10-22T00:35:12;15.30;91.30
6672;DHT22;3372;48.690;12.362;2022-10-22T00:37:38;15.30;91.30
6672;DHT22;3372;48.690;12.362;2022-10-22T00:40:03;15.40;91.30
6672;DHT22;3372;48.690;12.362;2022-10-22T00:42:29;15.30;91.50
6672;DHT22;3372;48.690;12.362;2022-10-22T00:47:56;15.30;91.80
6672;DHT22;3372;48.690;12.362;2022-10-22T00:50:42;15.20;92.00
6672;DHT22;3372;48.690;12.362;2022-10-22T00:53:20;15.20;92.20
6672;DHT22;3372;48.690;12.362;2022-10-22T00:55:49;15.30;91.80
6672;DHT22;3372;48.690;12.362;2022-10-22T00:58:17;15.30;91.40
6672;DHT22;3372;48.690;12.362;2022-10-22T01:00:43;15.30;91.30
6672;DHT22;3372;48.690;12.362;2022-10-22T01:03:09;15.30;91.30
6672;DHT22;3372;48.690;12.362;2022-10-22T01:05:53;15.40;91.30
6672;DHT22;3372;48.690;12.362;2022-10-22T01:11:21;15.30;91.50
6672;DHT22;3372;48.690;12.362;2022-10-22T01:22:30;15.30;92.10
6672;DHT22;3372;48.690;12.362;2022-10-22T01:30:25;15.30;91.70
6672;DHT22;3372;48.690;12.362;2022-10-22T01:33:00;15.30;91.50
6672;DHT22;3372;48.690;12.362;2022-10-22T01:35:34;15.30;91.50
6672;DHT22;3372;48.690;12.362;2022-10-22T01:38:04;15.30;92.00
6672;DHT22;3372;48.690;12.362;2022-10-22T01:40:31;15.30;91.90
6672;DHT22;3372;48.690;12.362;2022-10-22T01:42:59;15.30;92.10
6672;DHT22;3372;48.690;12.362;2022-10-22T01:45:25;15.20;93.30
6672;DHT22;3372;48.690;12.362;2022-10-22T01:53:52;15.30;93.10
6672;DHT22;3372;48.690;12.362;2022-10-22T02:00:06;15.30;93.30
6672;DHT22;3372;48.690;12.362;2022-10-22T02:03:12;15.30;93.70
6672;DHT22;3372;48.690;12.362;2022-10-22T02:08:16;15.30;94.40
6672;DHT22;3372;48.690;12.362;2022-10-22T02:10:45;15.30;94.10
6672;DHT22;3372;48.690;12.362;2022-10-22T02:13:18;15.20;94.90
6672;DHT22;3372;48.690;12.362;2022-10-22T02:15:46;15.20;94.60
6672;DHT22;3372;48.690;12.362;2022-10-22T02:18:14;15.30;94.30
6672;DHT22;3372;48.690;12.362;2022-10-22T02:20:41;15.30;94.60
6672;DHT22;3372;48.690;12.362;2022-10-22T02:23:08;15.30;94.40
6672;DHT22;3372;48.690;12.362;2022-10-22T02:25:36;15.30;94.70
6672;DHT22;3372;48.690;12.362;2022-10-22T02:28:17;15.20;94.80
6672;DHT22;3372;48.690;12.362;2022-10-22T02:30:48;15.20;94.70
6672;DHT22;3372;48.690;12.362;2022-10-22T02:33:18;15.20;94.50
6672;DHT22;3372;48.690;12.362;2022-10-22T02:35:45;15.30;94.70
6672;DHT22;3372;48.690;12.362;2022-10-22T02:38:13;15.30;94.80
6672;DHT22;3372;48.690;12.362;2022-10-22T02:40:39;15.20;94.80
6672;DHT22;3372;48.690;12.362;2022-10-22T02:43:05;15.30;94.90
6672;DHT22;3372;48.690;12.362;2022-10-22T02:45:31;15.20;95.00
6672;DHT22;3372;48.690;12.362;2022-10-22T02:47:58;15.30;95.60
6672;DHT22;3372;48.690;12.362;2022-10-22T02:50:23;15.30;95.20
6672;DHT22;3372;48.690;12.362;2022-10-22T02:52:49;15.40;95.00
6672;DHT22;3372;48.690;12.362;2022-10-22T02:55:14;15.40;95.10
6672;DHT22;3372;48.690;12.362;2022-10-22T02:57:40;15.40;95.00
6672;DHT22;3372;48.690;12.362;2022-10-22T03:00:07;15.40;94.90
6672;DHT22;3372;48.690;12.362;2022-10-22T03:02:33;15.40;95.70
6672;DHT22;3372;48.690;12.362;2022-10-22T03:04:58;15.40;96.90
6672;DHT22;3372;48.690;12.362;2022-10-22T03:07:24;15.40;96.70
6672;DHT22;3372;48.690;12.362;2022-10-22T03:09:50;15.40;97.00
6672;DHT22;3372;48.690;12.362;2022-10-22T03:12:15;15.40;97.10
6672;DHT22;3372;48.690;12.362;2022-10-22T03:14:41;15.40;97.00
6672;DHT22;3372;48.690;12.362;2022-10-22T03:17:07;15.40;96.90
6672;DHT22;3372;48.690;12.362;2022-10-22T03:19:33;15.50;97.10
6672;DHT22;3372;48.690;12.362;2022-10-22T03:22:02;15.50;96.90
6672;DHT22;3372;48.690;12.362;2022-10-22T03:24:33;15.50;97.10
6672;DHT22;3372;48.690;12.362;2022-10-22T03:26:59;15.50;97.10
6672;DHT22;3372;48.690;12.362;2022-10-22T03:29:25;15.50;98.90
6672;DHT22;3372;48.690;12.362;2022-10-22T03:31:52;15.50;99.10
6672;DHT22;3372;48.690;12.362;2022-10-22T03:34:19;15.50;99.20
6672;DHT22;3372;48.690;12.362;2022-10-22T03:36:45;15.50;99.20
6672;DHT22;3372;48.690;12.362;2022-10-22T03:39:12;15.40;99.60
6672;DHT22;3372;48.690;12.362;2022-10-22T03:41:39;15.40;99.60
6672;DHT22;3372;48.690;12.362;2022-10-22T03:44:05;15.40;99.80
6672;DHT22;3372;48.690;12.362;2022-10-22T03:46:31;15.40;99.70
6672;DHT22;3372;48.690;12.362;2022-10-22T03:48:56;15.20;99.80
6672;DHT22;3372;48.690;12.362;2022-10-22T03:51:22;15.20;99.90
6672;DHT22;3372;48.690;12.362;2022-10-22T03:53:47;15.20;99.80
6672;DHT22;3372;48.690;12.362;2022-10-22T03:56:13;15.20;99.90
6672;DHT22;3372;48.690;12.362;2022-10-22T03:58:40;15.20;99.90
6672;DHT22;3372;48.690;12.362;2022-10-22T04:01:07;15.20;99.90
6672;DHT22;3372;48.690;12.362;2022-10-22T04:03:33;15.20;99.90
6672;DHT22;3372;48.690;12.362;2022-10-22T04:06:04;15.20;99.90
6672;DHT22;3372;48.690;12.362;2022-10-22T04:08:30;15.20;99.90
6672;DHT22;3372;48.690;12.362;2022-10-22T04:10:56;15.20;99.90
6672;DHT22;3372;48.690;12.362;2022-10-22T04:13:22;15.20;99.90
6672;DHT22;3372;48.690;12.362;2022-10-22T04:15:47;15.20;99.90
6672;DHT22;3372;48.690;12.362;2022-10-22T04:18:13;15.20;99.90
6672;DHT22;3372;48.690;12.362;2022-10-22T04:20:40;15.20;99.90
6672;DHT22;3372;48.690;12.362;2022-10-22T04:23:06;15.30;99.90
6672;DHT22;3372;48.690;12.362;2022-10-22T04:25:31;15.30;99.90
6672;DHT22;3372;48.690;12.362;2022-10-22T04:27:57;15.30;99.90
6672;DHT22;3372;48.690;12.362;2022-10-22T04:30:22;15.30;99.90
6672;DHT22;3372;48.690;12.362;2022-10-22T04:32:48;15.30;99.90
6672;DHT22;3372;48.690;12.362;2022-10-22T04:35:13;15.30;99.90
6672;DHT22;3372;48.690;12.362;2022-10-22T04:37:39;15.40;99.90
6672;DHT22;3372;48.690;12.362;2022-10-22T04:40:05;15.40;99.90
6672;DHT22;3372;48.690;12.362;2022-10-22T04:42:31;15.40;99.90
6672;DHT22;3372;48.690;12.362;2022-10-22T04:44:56;15.40;99.90
6672;DHT22;3372;48.690;12.362;2022-10-22T04:47:22;15.40;99.90
6672;DHT22;3372;48.690;12.362;2022-10-22T04:49:48;15.40;99.90
6672;DHT22;3372;48.690;12.362;2022-10-22T04:52:13;15.50;99.90
6672;DHT22;3372;48.690;12.362;2022-10-22T04:54:39;15.50;99.90
6672;DHT22;3372;48.690;12.362;2022-10-22T04:57:04;15.50;99.90
6672;DHT22;3372;48.690;12.362;2022-10-22T04:59:30;15.50;99.90
6672;DHT22;3372;48.690;12.362;2022-10-22T05:01:55;15.50;99.90
6672;DHT22;3372;48.690;12.362;2022-10-22T05:04:21;15.60;99.90
6672;DHT22;3372;48.690;12.362;2022-10-22T05:06:48;15.60;99.90
6672;DHT22;3372;48.690;12.362;2022-10-22T05:09:16;15.60;99.90
6672;DHT22;3372;48.690;12.362;2022-10-22T05:11:43;15.60;99.90
6672;DHT22;3372;48.690;12.362;2022-10-22T05:14:11;15.60;99.90
6672;DHT22;3372;48.690;12.362;2022-10-22T05:16:37;15.60;99.90
6672;DHT22;3372;48.690;12.362;2022-10-22T05:19:03;15.60;99.90
6672;DHT22;3372;48.690;12.362;2022-10-22T05:21:29;15.60;99.90
6672;DHT22;3372;48.690;12.362;2022-10-22T05:23:55;15.70;99.90
6672;DHT22;3372;48.690;12.362;2022-10-22T05:26:22;15.80;99.90
6672;DHT22;3372;48.690;12.362;2022-10-22T05:28:50;15.70;99.90
6672;DHT22;3372;48.690;12.362;2022-10-22T05:31:17;15.80;99.90
6672;DHT22;3372;48.690;12.362;2022-10-22T05:33:43;15.80;99.90
6672;DHT22;3372;48.690;12.362;2022-10-22T05:36:15;15.70;99.90
6672;DHT22;3372;48.690;12.362;2022-10-22T05:38:40;15.80;99.90
6672;DHT22;3372;48.690;12.362;2022-10-22T05:41:11;15.70;99.90
6672;DHT22;3372;48.690;12.362;2022-10-22T05:43:37;15.70;99.90
6672;DHT22;3372;48.690;12.362;2022-10-22T05:46:05;15.70;99.90
6672;DHT22;3372;48.690;12.362;2022-10-22T05:48:31;15.80;99.90
6672;DHT22;3372;48.690;12.362;2022-10-22T05:51:00;15.80;99.90
6672;DHT22;3372;48.690;12.362;2022-10-22T05:53:29;15.80;99.90
6672;DHT22;3372;48.690;12.362;2022-10-22T05:55:54;15.80;99.90
6672;DHT22;3372;48.690;12.362;2022-10-22T05:58:20;15.70;99.90
6672;DHT22;3372;48.690;12.362;2022-10-22T06:00:46;15.70;99.90
6672;DHT22;3372;48.690;12.362;2022-10-22T06:03:11;15.80;99.90
6672;DHT22;3372;48.690;12.362;2022-10-22T06:05:37;15.80;99.90
6672;DHT22;3372;48.690;12.362;2022-10-22T06:08:03;15.70;99.90
6672;DHT22;3372;48.690;12.362;2022-10-22T06:10:29;15.80;99.90
6672;DHT22;3372;48.690;12.362;2022-10-22T06:12:55;15.80;99.90
6672;DHT22;3372;48.690;12.362;2022-10-22T06:15:20;15.80;99.90
6672;DHT22;3372;48.690;12.362;2022-10-22T06:17:47;15.90;99.90
6672;DHT22;3372;48.690;12.362;2022-10-22T06:20:13;15.80;99.90
6672;DHT22;3372;48.690;12.362;2022-10-22T06:22:39;15.80;99.90
6672;DHT22;3372;48.690;12.362;2022-10-22T06:25:05;15.70;99.90
6672;DHT22;3372;48.690;12.362;2022-10-22T06:27:33;15.70;99.90
6672;DHT22;3372;48.690;12.362;2022-10-22T06:29:58;15.70;99.90
6672;DHT22;3372;48.690;12.362;2022-10-22T06:32:24;15.80;99.90
6672;DHT22;3372;48.690;12.362;2022-10-22T06:34:50;15.80;99.90
6672;DHT22;3372;48.690;12.362;2022-10-22T06:37:16;15.80;99.90
6672;DHT22;3372;48.690;12.362;2022-10-22T06:39:41;15.80;99.90
6672;DHT22;3372;48.690;12.362;2022-10-22T06:42:07;15.80;99.90
6672;DHT22;3372;48.690;12.362;2022-10-22T06:44:33;15.80;99.90
6672;DHT22;3372;48.690;12.362;2022-10-22T06:46:58;15.80;99.90
6672;DHT22;3372;48.690;12.362;2022-10-22T06:49:24;15.80;99.90
6672;DHT22;3372;48.690;12.362;2022-10-22T06:51:51;15.80;99.90
6672;DHT22;3372;48.690;12.362;2022-10-22T06:54:18;15.90;99.90
6672;DHT22;3372;48.690;12.362;2022-10-22T06:56:43;15.90;99.90
6672;DHT22;3372;48.690;12.362;2022-10-22T06:59:09;15.90;99.90
6672;DHT22;3372;48.690;12.362;2022-10-22T07:01:35;15.90;99.90
6672;DHT22;3372;48.690;12.362;2022-10-22T07:04:01;15.90;99.90
6672;DHT22;3372;48.690;12.362;2022-10-22T07:06:28;15.90;99.90
6672;DHT22;3372;48.690;12.362;2022-10-22T07:08:55;15.90;99.90
6672;DHT22;3372;48.690;12.362;2022-10-22T07:11:23;15.90;99.90
6672;DHT22;3372;48.690;12.362;2022-10-22T07:13:50;15.80;99.90
6672;DHT22;3372;48.690;12.362;2022-10-22T07:16:17;15.90;99.90
6672;DHT22;3372;48.690;12.362;2022-10-22T07:18:43;15.90;99.90
6672;DHT22;3372;48.690;12.362;2022-10-22T07:21:10;15.90;99.90
6672;DHT22;3372;48.690;12.362;2022-10-22T07:23:37;15.90;99.90
6672;DHT22;3372;48.690;12.362;2022-10-22T07:26:04;15.90;99.90
6672;DHT22;3372;48.690;12.362;2022-10-22T07:28:32;15.80;99.90
6672;DHT22;3372;48.690;12.362;2022-10-22T07:30:58;15.80;99.90
6672;DHT22;3372;48.690;12.362;2022-10-22T07:33:24;15.90;99.90
6672;DHT22;3372;48.690;12.362;2022-10-22T07:35:49;15.90;99.90
6672;DHT22;3372;48.690;12.362;2022-10-22T07:38:15;15.80;99.90
6672;DHT22;3372;48.690;12.362;2022-10-22T07:40:41;15.90;99.90
6672;DHT22;3372;48.690;12.362;2022-10-22T07:43:06;15.90;99.90
6672;DHT22;3372;48.690;12.362;2022-10-22T07:45:32;15.90;99.90
6672;DHT22;3372;48.690;12.362;2022-10-22T07:47:58;15.90;99.90
6672;DHT22;3372;48.690;12.362;2022-10-22T07:50:25;15.90;99.90
6672;DHT22;3372;48.690;12.362;2022-10-22T07:52:50;15.90;99.90
6672;DHT22;3372;48.690;12.362;2022-10-22T07:55:16;15.90;99.90
6672;DHT22;3372;48.690;12.362;2022-10-22T07:57:42;15.90;99.90
6672;DHT22;3372;48.690;12.362;2022-10-22T08:00:08;16.00;99.90
6672;DHT22;3372;48.690;12.362;2022-10-22T08:02:34;16.00;99.90
6672;DHT22;3372;48.690;12.362;2022-10-22T08:04:59;16.10;99.90
6672;DHT22;3372;48.690;12.362;2022-10-22T08:07:25;15.90;99.90
6672;DHT22;3372;48.690;12.362;2022-10-22T08:09:51;15.90;99.90
6672;DHT22;3372;48.690;12.362;2022-10-22T08:12:16;16.00;99.90
6672;DHT22;3372;48.690;12.362;2022-10-22T08:14:42;16.00;99.90
6672;DHT22;3372;48.690;12.362;2022-10-22T08:17:08;16.10;99.90
6672;DHT22;3372;48.690;12.362;2022-10-22T08:19:33;16.20;99.90
6672;DHT22;3372;48.690;12.362;2022-10-22T08:22:00;16.10;99.90
6672;DHT22;3372;48.690;12.362;2022-10-22T08:24:26;16.20;99.90
6672;DHT22;3372;48.690;12.362;2022-10-22T08:26:52;16.20;99.90
6672;DHT22;3372;48.690;12.362;2022-10-22T08:29:22;16.20;99.90
6672;DHT22;3372;48.690;12.362;2022-10-22T08:31:49;16.20;99.90
6672;DHT22;3372;48.690;12.362;2022-10-22T08:34:15;16.30;99.90
6672;DHT22;3372;48.690;12.362;2022-10-22T08:36:41;16.20;99.90
6672;DHT22;3372;48.690;12.362;2022-10-22T08:39:07;16.20;99.90
6672;DHT22;3372;48.690;12.362;2022-10-22T08:44:42;16.10;99.90
6672;DHT22;3372;48.690;12.362;2022-10-22T08:47:19;16.20;99.90
6672;DHT22;3372;48.690;12.362;2022-10-22T08:49:47;16.20;99.90
6672;DHT22;3372;48.690;12.362;2022-10-22T08:52:15;16.30;99.90
6672;DHT22;3372;48.690;12.362;2022-10-22T08:54:52;16.30;99.90
6672;DHT22;3372;48.690;12.362;2022-10-22T09:05:45;16.30;99.90
6672;DHT22;3372;48.690;12.362;2022-10-22T09:08:14;16.30;99.90
6672;DHT22;3372;48.690;12.362;2022-10-22T09:10:46;16.30;99.90
6672;DHT22;3372;48.690;12.362;2022-10-22T09:13:16;16.30;99.90
6672;DHT22;3372;48.690;12.362;2022-10-22T09:15:45;16.30;99.90
6672;DHT22;3372;48.690;12.362;2022-10-22T09:20:48;16.40;99.90
6672;DHT22;3372;48.690;12.362;2022-10-22T09:26:03;16.40;99.90
6672;DHT22;3372;48.690;12.362;2022-10-22T09:28:29;16.50;99.90
6672;DHT22;3372;48.690;12.362;2022-10-22T09:30:54;16.50;99.90
6672;DHT22;3372;48.690;12.362;2022-10-22T09:33:25;16.50;99.90
6672;DHT22;3372;48.690;12.362;2022-10-22T09:35:56;16.50;99.90
6672;DHT22;3372;48.690;12.362;2022-10-22T09:38:27;16.50;99.90
6672;DHT22;3372;48.690;12.362;2022-10-22T09:40:55;16.50;99.90
6672;DHT22;3372;48.690;12.362;2022-10-22T09:43:21;16.60;99.90
6672;DHT22;3372;48.690;12.362;2022-10-22T09:45:54;16.60;99.90
6672;DHT22;3372;48.690;12.362;2022-10-22T09:48:22;16.60;99.90
6672;DHT22;3372;48.690;12.362;2022-10-22T09:51:20;16.70;99.90
6672;DHT22;3372;48.690;12.362;2022-10-22T09:53:55;16.70;99.90
6672;DHT22;3372;48.690;12.362;2022-10-22T09:56:38;16.70;99.90
6672;DHT22;3372;48.690;12.362;2022-10-22T09:59:13;16.80;99.90
6672;DHT22;3372;48.690;12.362;2022-10-22T10:01:39;16.80;99.90
6672;DHT22;3372;48.690;12.362;2022-10-22T10:04:15;16.90;99.90
6672;DHT22;3372;48.690;12.362;2022-10-22T10:06:43;16.90;99.90
6672;DHT22;3372;48.690;12.362;2022-10-22T10:09:22;16.90;99.90
6672;DHT22;3372;48.690;12.362;2022-10-22T10:12:28;16.80;99.90
6672;DHT22;3372;48.690;12.362;2022-10-22T10:15:16;16.80;99.90
6672;DHT22;3372;48.690;12.362;2022-10-22T10:32:02;16.90;99.90
6672;DHT22;3372;48.690;12.362;2022-10-22T10:34:46;16.90;99.90
6672;DHT22;3372;48.690;12.362;2022-10-22T10:37:25;16.90;99.90
6672;DHT22;3372;48.690;12.362;2022-10-22T10:43:09;16.90;99.90
6672;DHT22;3372;48.690;12.362;2022-10-22T10:48:59;16.70;99.90
6672;DHT22;3372;48.690;12.362;2022-10-22T10:54:20;16.60;99.90
6672;DHT22;3372;48.690;12.362;2022-10-22T10:56:59;16.90;99.90
6672;DHT22;3372;48.690;12.362;2022-10-22T11:07:25;17.20;99.90
6672;DHT22;3372;48.690;12.362;2022-10-22T11:09:56;17.40;99.90
6672;DHT22;3372;48.690;12.362;2022-10-22T11:12:34;17.40;99.90
6672;DHT22;3372;48.690;12.362;2022-10-22T11:15:28;17.40;99.90
6672;DHT22;3372;48.690;12.362;2022-10-22T11:18:03;17.50;99.90
6672;DHT22;3372;48.690;12.362;2022-10-22T11:20:42;17.50;99.90
6672;DHT22;3372;48.690;12.362;2022-10-22T11:23:16;17.50;99.90
6672;DHT22;3372;48.690;12.362;2022-10-22T11:25:47;17.60;99.90
6672;DHT22;3372;48.690;12.362;2022-10-22T11:30:53;17.30;99.90
6672;DHT22;3372;48.690;12.362;2022-10-22T11:33:25;17.40;99.90
6672;DHT22;3372;48.690;12.362;2022-10-22T11:35:52;17.50;99.90
6672;DHT22;3372;48.690;12.362;2022-10-22T11:38:23;17.60;99.90
6672;DHT22;3372;48.690;12.362;2022-10-22T11:40:59;17.60;99.90
6672;DHT22;3372;48.690;12.362;2022-10-22T11:43:34;17.40;99.90
6672;DHT22;3372;48.690;12.362;2022-10-22T11:48:40;17.40;99.90
6672;DHT22;3372;48.690;12.362;2022-10-22T11:53:57;17.50;99.90
6672;DHT22;3372;48.690;12.362;2022-10-22T11:56:31;17.70;99.90
6672;DHT22;3372;48.690;12.362;2022-10-22T11:59:00;17.80;99.90
6672;DHT22;3372;48.690;12.362;2022-10-22T12:01:29;17.60;99.90
6672;DHT22;3372;48.690;12.362;2022-10-22T12:04:21;17.70;99.90
6672;DHT22;3372;48.690;12.362;2022-10-22T12:07:01;17.90;99.90
6672;DHT22;3372;48.690;12.362;2022-10-22T12:09:28;18.00;99.90
6672;DHT22;3372;48.690;12.362;2022-10-22T12:12:11;18.00;99.90
6672;DHT22;3372;48.690;12.362;2022-10-22T12:14:56;18.00;99.90
6672;DHT22;3372;48.690;12.362;2022-10-22T12:17:23;18.00;99.90
6672;DHT22;3372;48.690;12.362;2022-10-22T12:20:12;18.10;99.90
6672;DHT22;3372;48.690;12.362;2022-10-22T12:22:38;18.10;99.90
6672;DHT22;3372;48.690;12.362;2022-10-22T12:25:36;18.20;99.90
6672;DHT22;3372;48.690;12.362;2022-10-22T12:28:02;18.20;99.90
6672;DHT22;3372;48.690;12.362;2022-10-22T12:30:31;18.20;99.90
6672;DHT22;3372;48.690;12.362;2022-10-22T12:33:00;18.20;99.90
6672;DHT22;3372;48.690;12.362;2022-10-22T12:35:28;18.20;99.90
6672;DHT22;3372;48.690;12.362;2022-10-22T12:38:17;18.30;99.90
6672;DHT22;3372;48.690;12.362;2022-10-22T12:40:42;18.40;99.90
6672;DHT22;3372;48.690;12.362;2022-10-22T12:43:15;18.40;99.90
6672;DHT22;3372;48.690;12.362;2022-10-22T12:45:46;18.40;99.90
6672;DHT22;3372;48.690;12.362;2022-10-22T12:48:22;18.60;99.90
6672;DHT22;3372;48.690;12.362;2022-10-22T12:50:52;18.50;99.90
6672;DHT22;3372;48.690;12.362;2022-10-22T12:55:54;18.70;99.90
6672;DHT22;3372;48.690;12.362;2022-10-22T12:58:25;18.80;99.90
6672;DHT22;3372;48.690;12.362;2022-10-22T13:00:58;18.80;99.90
6672;DHT22;3372;48.690;12.362;2022-10-22T13:03:40;18.60;99.90
6672;DHT22;3372;48.690;12.362;2022-10-22T13:08:42;18.50;99.90
6672;DHT22;3372;48.690;12.362;2022-10-22T13:11:09;18.50;99.90
6672;DHT22;3372;48.690;12.362;2022-10-22T13:18:39;18.60;99.90
6672;DHT22;3372;48.690;12.362;2022-10-22T13:21:04;18.70;99.90
6672;DHT22;3372;48.690;12.362;2022-10-22T13:23:32;18.70;99.90
6672;DHT22;3372;48.690;12.362;2022-10-22T13:26:18;18.70;98.40
6672;DHT22;3372;48.690;12.362;2022-10-22T13:28:52;18.50;96.90
6672;DHT22;3372;48.690;12.362;2022-10-22T13:31:22;18.70;97.90
6672;DHT22;3372;48.690;12.362;2022-10-22T13:33:52;18.70;97.10
6672;DHT22;3372;48.690;12.362;2022-10-22T13:36:19;18.60;94.00
6672;DHT22;3372;48.690;12.362;2022-10-22T13:38:44;18.70;95.10
6672;DHT22;3372;48.690;12.362;2022-10-22T13:41:21;18.80;94.10
6672;DHT22;3372;48.690;12.362;2022-10-22T13:43:47;18.80;94.10
6672;DHT22;3372;48.690;12.362;2022-10-22T13:46:13;18.80;94.10
6672;DHT22;3372;48.690;12.362;2022-10-22T13:48:39;18.90;93.80
6672;DHT22;3372;48.690;12.362;2022-10-22T13:51:14;18.80;94.40
6672;DHT22;3372;48.690;12.362;2022-10-22T13:53:40;18.80;90.90
6672;DHT22;3372;48.690;12.362;2022-10-22T13:56:07;18.60;90.10
6672;DHT22;3372;48.690;12.362;2022-10-22T13:58:35;18.70;93.00
6672;DHT22;3372;48.690;12.362;2022-10-22T14:01:02;18.70;92.10
6672;DHT22;3372;48.690;12.362;2022-10-22T14:03:33;18.80;91.60
6672;DHT22;3372;48.690;12.362;2022-10-22T14:05:59;18.90;92.80
6672;DHT22;3372;48.690;12.362;2022-10-22T14:08:26;18.80;92.50
6672;DHT22;3372;48.690;12.362;2022-10-22T14:10:52;18.90;92.50
6672;DHT22;3372;48.690;12.362;2022-10-22T14:13:19;18.90;90.00
6672;DHT22;3372;48.690;12.362;2022-10-22T14:15:48;18.80;89.20
6672;DHT22;3372;48.690;12.362;2022-10-22T14:18:21;18.80;90.10
6672;DHT22;3372;48.690;12.362;2022-10-22T14:20:56;18.90;90.50
6672;DHT22;3372;48.690;12.362;2022-10-22T14:23:25;18.90;90.60
6672;DHT22;3372;48.690;12.362;2022-10-22T14:25:52;19.00;91.20
6672;DHT22;3372;48.690;12.362;2022-10-22T14:28:18;19.00;90.00
6672;DHT22;3372;48.690;12.362;2022-10-22T14:30:44;19.00;89.40
6672;DHT22;3372;48.690;12.362;2022-10-22T14:33:15;19.00;89.40
6672;DHT22;3372;48.690;12.362;2022-10-22T14:35:41;19.10;89.50
6672;DHT22;3372;48.690;12.362;2022-10-22T14:38:07;19.10;86.90
6672;DHT22;3372;48.690;12.362;2022-10-22T14:40:32;19.00;86.90
6672;DHT22;3372;48.690;12.362;2022-10-22T14:42:58;19.00;85.60
6672;DHT22;3372;48.690;12.362;2022-10-22T14:45:25;19.00;86.70
6672;DHT22;3372;48.690;12.362;2022-10-22T14:47:52;19.00;87.20
6672;DHT22;3372;48.690;12.362;2022-10-22T14:50:22;19.00;83.80
6672;DHT22;3372;48.690;12.362;2022-10-22T14:52:48;19.00;87.10
6672;DHT22;3372;48.690;12.362;2022-10-22T14:55:15;18.90;83.40
6672;DHT22;3372;48.690;12.362;2022-10-22T14:57:41;18.90;83.10
6672;DHT22;3372;48.690;12.362;2022-10-22T15:00:18;18.90;86.40
6672;DHT22;3372;48.690;12.362;2022-10-22T15:02:45;18.90;85.40
6672;DHT22;3372;48.690;12.362;2022-10-22T15:05:11;18.90;86.80
6672;DHT22;3372;48.690;12.362;2022-10-22T15:07:37;19.00;86.70
6672;DHT22;3372;48.690;12.362;2022-10-22T15:10:04;19.00;86.40
6672;DHT22;3372;48.690;12.362;2022-10-22T15:12:30;18.90;86.30
6672;DHT22;3372;48.690;12.362;2022-10-22T15:14:56;18.90;82.90
6672;DHT22;3372;48.690;12.362;2022-10-22T15:17:22;18.80;83.40
6672;DHT22;3372;48.690;12.362;2022-10-22T15:19:47;18.70;85.00
6672;DHT22;3372;48.690;12.362;2022-10-22T15:22:13;18.70;86.00
6672;DHT22;3372;48.690;12.362;2022-10-22T15:24:40;18.80;87.20
6672;DHT22;3372;48.690;12.362;2022-10-22T15:27:09;18.80;87.00
6672;DHT22;3372;48.690;12.362;2022-10-22T15:29:38;18.60;87.20
6672;DHT22;3372;48.690;12.362;2022-10-22T15:32:04;18.50;87.00
6672;DHT22;3372;48.690;12.362;2022-10-22T15:34:32;18.60;88.40
6672;DHT22;3372;48.690;12.362;2022-10-22T15:37:00;18.60;88.00
6672;DHT22;3372;48.690;12.362;2022-10-22T15:39:27;18.50;87.80
6672;DHT22;3372;48.690;12.362;2022-10-22T15:41:53;18.50;88.90
6672;DHT22;3372;48.690;12.362;2022-10-22T15:44:30;18.40;89.30
6672;DHT22;3372;48.690;12.362;2022-10-22T15:46:56;18.40;88.90
6672;DHT22;3372;48.690;12.362;2022-10-22T15:49:23;18.30;89.30
6672;DHT22;3372;48.690;12.362;2022-10-22T15:51:49;18.30;89.50
6672;DHT22;3372;48.690;12.362;2022-10-22T15:54:18;18.20;89.40
6672;DHT22;3372;48.690;12.362;2022-10-22T15:56:45;18.10;89.90
6672;DHT22;3372;48.690;12.362;2022-10-22T15:59:12;18.10;89.50
6672;DHT22;3372;48.690;12.362;2022-10-22T16:01:39;18.00;89.50
6672;DHT22;3372;48.690;12.362;2022-10-22T16:04:05;18.00;89.20
6672;DHT22;3372;48.690;12.362;2022-10-22T16:09:08;17.90;89.90
6672;DHT22;3372;48.690;12.362;2022-10-22T16:11:34;17.80;89.80
6672;DHT22;3372;48.690;12.362;2022-10-22T16:14:00;17.70;90.70
6672;DHT22;3372;48.690;12.362;2022-10-22T16:16:28;17.50;91.00
6672;DHT22;3372;48.690;12.362;2022-10-22T16:18:55;17.40;91.30
6672;DHT22;3372;48.690;12.362;2022-10-22T16:21:22;17.40;91.30
6672;DHT22;3372;48.690;12.362;2022-10-22T16:23:47;17.40;91.00
6672;DHT22;3372;48.690;12.362;2022-10-22T16:26:14;17.30;91.10
6672;DHT22;3372;48.690;12.362;2022-10-22T16:28:41;17.20;91.30
6672;DHT22;3372;48.690;12.362;2022-10-22T16:31:09;17.10;91.30
6672;DHT22;3372;48.690;12.362;2022-10-22T16:33:37;17.00;91.70
6672;DHT22;3372;48.690;12.362;2022-10-22T16:36:04;17.00;91.50
6672;DHT22;3372;48.690;12.362;2022-10-22T16:38:30;16.90;91.40
6672;DHT22;3372;48.690;12.362;2022-10-22T16:41:26;16.90;91.00
6672;DHT22;3372;48.690;12.362;2022-10-22T16:43:59;16.80;90.10
6672;DHT22;3372;48.690;12.362;2022-10-22T16:46:27;16.80;90.50
6672;DHT22;3372;48.690;12.362;2022-10-22T16:48:52;16.70;89.50
6672;DHT22;3372;48.690;12.362;2022-10-22T16:51:21;16.70;90.10
6672;DHT22;3372;48.690;12.362;2022-10-22T16:53:47;16.60;90.40
6672;DHT22;3372;48.690;12.362;2022-10-22T16:56:14;16.50;90.30
6672;DHT22;3372;48.690;12.362;2022-10-22T16:58:50;16.50;90.40
6672;DHT22;3372;48.690;12.362;2022-10-22T17:01:17;16.50;90.70
6672;DHT22;3372;48.690;12.362;2022-10-22T17:03:43;16.40;90.40
6672;DHT22;3372;48.690;12.362;2022-10-22T17:06:09;16.30;90.40
6672;DHT22;3372;48.690;12.362;2022-10-22T17:08:37;16.30;90.40
6672;DHT22;3372;48.690;12.362;2022-10-22T17:11:08;16.30;89.90
6672;DHT22;3372;48.690;12.362;2022-10-22T17:13:34;16.30;89.30
6672;DHT22;3372;48.690;12.362;2022-10-22T17:16:04;16.20;88.60
6672;DHT22;3372;48.690;12.362;2022-10-22T17:18:30;16.20;88.20
6672;DHT22;3372;48.690;12.362;2022-10-22T17:20:56;16.00;89.30
6672;DHT22;3372;48.690;12.362;2022-10-22T17:23:24;15.90;90.10
6672;DHT22;3372;48.690;12.362;2022-10-22T17:25:57;15.90;90.20
6672;DHT22;3372;48.690;12.362;2022-10-22T17:28:23;15.90;90.70
6672;DHT22;3372;48.690;12.362;2022-10-22T17:30:48;15.80;90.60
6672;DHT22;3372;48.690;12.362;2022-10-22T17:33:14;15.70;90.20
6672;DHT22;3372;48.690;12.362;2022-10-22T17:35:40;15.70;90.00